KRDR/RDR METAR and TAF weather

Enter ICAO airport designator
Station Type Date Time Source
KRDR METAR 2020/01/19 22:56 UTC NOAA

KRDR 192256Z 34006KT 10SM FEW050 SCT150 M17/M20 A3061 RMK AO2A SLP398 T11671201 $


Station Type Date Time Source
KRDR Decoded METAR 2020/01/19 22:56 UTC NOAA

Grand Forks Air Force Base, ND, United States (KRDR) 47-58N 097-24W 278M
Jan 19, 2020 - 05:56 PM EST / 2020.01.19 2256 UTC
Wind: from the NNW (340 degrees) at 7 MPH (6 KT):0
Visibility: 10 mile(s):0
Sky conditions: partly cloudy
Temperature: 1.9 F (-16.7 C)
Windchill: -11 F (-24 C):2
Dew Point: -4.2 F (-20.1 C)
Relative Humidity: 74%
Pressure (altimeter): 30.61 in. Hg (1036 hPa)
ob: KRDR 192256Z 34006KT 10SM FEW050 SCT150 M17/M20 A3061 RMK AO2A SLP398 T11671201
cycle: 23

Station Type Date Time Source
KRDR TAF 2020/01/19 22:59 UTC NOAA

TAF
AMD KRDR 192243Z 1922/2024 31009KT 9999 FEW020 QNH3055INS
BECMG 2010/2011 20009KT 9999 BKN015 QNH3040INS TXM13/1922Z TNM25/2014Z

Example: see airport list